Time;durP1;ratioP1;P1;durP2;ratioP2;P2;SDS_P1;SDS_P2;PMS_P1;PMS_P2;Temp;Humidity;BMP_temperature;BMP_pressure;BME280_temperature;BME280_humidity;BME280_pressure;Samples;Min_cycle;Max_cycle;Signal;HPM_P1;HPM_P2
2022/09/14 00:01:11;;;;;;;8.57;5.88;;;;;;;11.63;80.91;98680.81;6169425;23;20103;-88
2022/09/14 00:03:37;;;;;;;8.52;5.63;;;;;;;11.67;80.93;98681.75;6169128;23;20106;-89
2022/09/14 00:06:08;;;;;;;7.00;5.53;;;;;;;11.66;80.63;98690.31;6194043;23;20354;-90
2022/09/14 00:08:35;;;;;;;6.95;5.43;;;;;;;11.69;80.70;98693.16;6170138;23;20016;-89
2022/09/14 00:11:06;;;;;;;9.40;5.55;;;;;;;11.67;80.74;98680.94;6219592;23;20015;-88
2022/09/14 00:13:34;;;;;;;7.75;5.70;;;;;;;11.63;80.88;98671.81;6195250;23;20027;-92
2022/09/14 00:16:04;;;;;;;7.93;5.55;;;;;;;11.73;80.91;98694.09;6194925;23;20016;-88
2022/09/14 00:18:32;;;;;;;8.25;5.72;;;;;;;11.63;80.80;98667.13;6219697;23;20020;-89
2022/09/14 00:21:04;;;;;;;6.85;5.55;;;;;;;11.84;80.69;98689.03;6220115;23;20358;-94
2022/09/14 00:23:30;;;;;;;9.10;5.68;;;;;;;11.77;80.77;98683.28;6219876;23;20020;-88
2022/09/14 00:26:05;;;;;;;7.23;5.57;;;;;;;11.72;80.83;98673.34;6194275;23;20161;-89
2022/09/14 00:28:37;;;;;;;8.73;5.60;;;;;;;11.70;80.69;98672.06;6219273;23;20020;-88
2022/09/14 00:31:04;;;;;;;6.78;5.75;;;;;;;11.77;80.78;98666.84;6219398;23;20453;-94
2022/09/14 00:33:30;;;;;;;11.38;6.05;;;;;;;11.80;80.62;98674.38;6219282;23;20051;-89
2022/09/14 00:36:08;;;;;;;8.30;6.00;;;;;;;11.71;80.57;98654.50;6246101;23;20020;-90
2022/09/14 00:38:35;;;;;;;9.20;6.70;;;;;;;11.80;80.43;98668.91;6169515;23;20022;-90
2022/09/14 00:41:02;;;;;;;10.63;5.90;;;;;;;11.72;80.43;98662.38;6194804;23;20027;-89
2022/09/14 00:43:29;;;;;;;10.00;6.10;;;;;;;11.85;80.54;98673.38;6218906;23;20035;-91
2022/09/14 00:45:55;;;;;;;8.60;6.22;;;;;;;11.89;80.74;98675.13;6220072;23;20027;-90
2022/09/14 00:48:24;;;;;;;10.47;6.10;;;;;;;11.68;80.86;98653.22;6246123;23;20016;-90
2022/09/14 00:50:52;;;;;;;10.43;6.25;;;;;;;11.67;80.83;98648.88;6194589;23;20091;-89
2022/09/14 00:53:18;;;;;;;7.95;6.35;;;;;;;11.95;80.64;98678.44;6219460;23;20020;-89
2022/09/14 00:55:44;;;;;;;8.27;5.87;;;;;;;11.85;80.31;98656.97;6219201;23;20026;-89
2022/09/14 00:58:11;;;;;;;10.43;6.20;;;;;;;11.80;80.55;98655.22;6169385;23;20066;-90
2022/09/14 01:00:37;;;;;;;9.05;6.25;;;;;;;11.68;80.69;98633.25;6219588;23;20020;-89
2022/09/14 01:03:03;;;;;;;9.32;6.18;;;;;;;11.72;80.63;98636.91;6193873;23;20031;-89
2022/09/14 01:06:05;;;;;;;7.63;6.10;;;;;;;11.93;80.75;98672.53;6218165;23;20016;-89
2022/09/14 01:08:41;;;;;;;10.52;5.82;;;;;;;11.91;80.93;98664.63;6123976;23;20026;-89
2022/09/14 01:11:52;;;;;;;9.75;5.97;;;;;;;11.86;81.10;98655.84;6124265;23;20075;-89
2022/09/14 01:14:31;;;;;;;9.77;5.93;;;;;;;11.90;81.01;98654.03;6075244;23;20045;-90
2022/09/14 01:17:06;;;;;;;14.50;6.50;;;;;;;11.84;80.97;98634.25;6099479;23;20464;-95
2022/09/14 01:20:06;;;;;;;14.50;6.00;;;;;;;12.01;80.65;98657.13;6074863;23;20050;-90
2022/09/14 01:22:42;;;;;;;9.90;6.40;;;;;;;11.93;80.70;98643.19;6123158;23;20018;-90
2022/09/14 01:25:33;;;;;;;8.80;6.32;;;;;;;11.95;80.61;98645.56;6075030;23;20403;-91
2022/09/14 01:28:04;;;;;;;11.20;6.07;;;;;;;11.96;80.18;98653.47;6074911;23;20434;-90
2022/09/14 01:30:33;;;;;;;10.52;6.88;;;;;;;11.83;80.85;98621.69;6099536;23;20026;-91
2022/09/14 01:33:13;;;;;;;9.40;7.05;;;;;;;12.01;80.75;98655.19;6099147;23;20018;-90
2022/09/14 01:35:53;;;;;;;8.68;6.25;;;;;;;11.91;80.99;98641.91;6099283;23;20018;-91
2022/09/14 01:38:44;;;;;;;9.23;6.00;;;;;;;11.94;80.91;98631.09;6074763;23;20017;-95
2022/09/14 01:41:14;;;;;;;8.98;6.63;;;;;;;11.91;80.80;98629.03;6051569;23;20018;-90
2022/09/14 01:43:45;;;;;;;11.80;7.22;;;;;;;11.85;80.94;98624.91;6194599;23;20161;-92
2022/09/14 01:46:16;;;;;;;10.73;6.75;;;;;;;12.00;81.24;98637.16;6194036;23;20015;-89
2022/09/14 01:49:03;;;;;;;9.18;6.65;;;;;;;12.02;81.19;98636.81;6218582;23;20107;-88
2022/09/14 01:51:36;;;;;;;9.32;6.60;;;;;;;11.94;81.33;98631.09;6194108;23;20020;-94
2022/09/14 01:54:10;;;;;;;10.85;6.50;;;;;;;11.98;81.48;98621.03;6194012;23;20028;-89
2022/09/14 01:56:42;;;;;;;13.02;6.80;;;;;;;11.95;81.32;98627.22;6193821;23;20103;-89
2022/09/14 01:59:17;;;;;;;12.25;6.82;;;;;;;11.91;81.49;98615.34;6193708;23;20066;-95
2022/09/14 02:01:49;;;;;;;9.77;6.93;;;;;;;11.90;81.66;98613.75;6169493;23;20015;-95
2022/09/14 02:04:21;;;;;;;13.00;7.05;;;;;;;12.02;81.72;98632.16;6220322;23;20023;-94
2022/09/14 02:06:48;;;;;;;9.43;6.38;;;;;;;11.84;81.83;98595.09;6219830;23;20551;-94
2022/09/14 02:09:21;;;;;;;10.13;7.35;;;;;;;11.86;81.89;98599.13;6220512;23;20012;-92
2022/09/14 02:11:48;;;;;;;12.82;6.88;;;;;;;12.03;81.83;98613.78;6194340;23;20043;-89
2022/09/14 02:14:14;;;;;;;11.60;7.28;;;;;;;11.94;81.83;98603.69;6193642;23;20027;-94
2022/09/14 02:16:42;;;;;;;14.25;7.75;;;;;;;12.03;81.79;98611.84;6193194;23;20030;-92
2022/09/14 02:19:09;;;;;;;14.20;7.55;;;;;;;11.87;81.76;98584.28;6218468;23;20008;-89
2022/09/14 02:21:36;;;;;;;;;;;;;;;12.08;81.78;98611.59;6193857;23;20450;-95
2022/09/14 02:24:03;;;;;;;11.40;7.18;;;;;;;11.98;81.71;98590.13;6245557;23;19966;-89
2022/09/14 02:26:29;;;;;;;13.13;7.65;;;;;;;12.07;81.74;98599.03;6245406;23;20016;-89
2022/09/14 02:28:56;;;;;;;14.30;8.30;;;;;;;12.01;81.84;98594.13;6194045;23;20023;-89
2022/09/14 02:31:40;;;;;;;;;;;;;;;12.12;81.90;98608.97;6193506;23;20562;-89
2022/09/14 02:34:27;;;;;;;12.45;8.30;;;;;;;12.11;81.86;98610.91;6244856;23;19915;-89
2022/09/14 02:37:08;;;;;;;14.60;9.65;;;;;;;12.02;81.83;98595.72;6193307;23;20019;-89
2022/09/14 02:39:44;;;;;;;17.95;9.18;;;;;;;12.03;82.08;98598.13;6218755;23;20094;-89
2022/09/14 02:42:28;;;;;;;18.40;11.15;;;;;;;11.96;81.97;98589.69;6193052;23;20382;-89
2022/09/14 02:45:17;;;;;;;15.48;8.80;;;;;;;12.01;82.08;98589.44;6168862;23;20020;-90
2022/09/14 02:48:01;;;;;;;15.13;10.50;;;;;;;12.05;81.90;98593.09;6168713;23;20016;-91
2022/09/14 02:50:47;;;;;;;20.02;12.18;;;;;;;12.05;82.10;98592.31;6244907;23;20044;-89
2022/09/14 02:53:21;;;;;;;22.10;12.30;;;;;;;11.99;82.10;98575.31;6244235;23;20020;-90
2022/09/14 02:56:01;;;;;;;19.92;12.00;;;;;;;12.12;82.18;98598.84;6244570;23;20526;-91
2022/09/14 02:58:36;;;;;;;19.85;13.05;;;;;;;11.96;82.02;98570.50;6244791;23;20020;-93
2022/09/14 03:01:03;;;;;;;20.23;12.27;;;;;;;12.04;82.00;98577.81;6218749;23;20016;-91
2022/09/14 03:03:29;;;;;;;21.77;13.15;;;;;;;12.04;81.98;98572.34;6219199;23;20042;-90
2022/09/14 03:05:56;;;;;;;21.85;12.20;;;;;;;12.09;81.88;98576.81;6213409;23;20489;-93
2022/09/14 03:08:24;;;;;;;18.07;12.13;;;;;;;12.03;81.80;98565.25;6213273;23;20336;-89
2022/09/14 03:10:50;;;;;;;22.27;12.52;;;;;;;11.98;82.06;98557.25;6188774;23;20107;-90
2022/09/14 03:13:16;;;;;;;21.83;13.27;;;;;;;11.97;81.99;98550.19;6188666;23;20016;-89
2022/09/14 03:15:42;;;;;;;21.73;13.63;;;;;;;12.07;81.78;98562.63;6214630;23;20021;-89
2022/09/14 03:18:10;;;;;;;22.25;14.40;;;;;;;12.07;81.66;98562.63;6188378;23;20020;-88
2022/09/14 03:20:36;;;;;;;21.58;14.85;;;;;;;12.14;81.80;98566.41;6162607;23;20106;-91
2022/09/14 03:23:04;;;;;;;20.88;15.02;;;;;;;12.20;81.70;98586.97;6162423;23;20500;-90
2022/09/14 03:25:36;;;;;;;28.50;14.75;;;;;;;12.12;81.75;98565.97;6162060;23;20052;-90
2022/09/14 03:28:02;;;;;;;23.73;15.05;;;;;;;12.11;81.71;98547.91;6215360;23;20021;-89
2022/09/14 03:33:00;;;;;;;24.70;15.40;;;;;;;12.10;81.84;98556.47;6215016;23;20012;-88
2022/09/14 03:35:30;;;;;;;26.83;15.13;;;;;;;12.26;81.66;98571.09;6164054;23;20450;-89
2022/09/14 03:37:58;;;;;;;29.13;15.20;;;;;;;12.26;81.62;98565.63;6188766;23;20501;-90
2022/09/14 03:42:52;;;;;;;26.40;16.98;;;;;;;12.26;81.60;98562.09;6213624;23;20033;-91
2022/09/14 03:47:45;;;;;;;30.73;18.42;;;;;;;12.34;81.58;98563.91;6214145;23;20012;-89
2022/09/14 03:50:13;;;;;;;25.67;18.88;;;;;;;12.24;81.46;98548.72;6188262;23;20111;-89
2022/09/14 03:52:39;;;;;;;34.15;19.70;;;;;;;12.45;81.18;98568.59;6163423;23;20144;-90
2022/09/14 03:55:08;;;;;;;31.17;19.17;;;;;;;12.27;81.45;98548.03;6189104;23;20055;-92
2022/09/14 03:57:34;;;;;;;28.40;18.65;;;;;;;12.30;81.57;98541.06;6195845;23;20020;-96
2022/09/14 04:00:00;;;;;;;25.05;16.95;;;;;;;12.35;81.03;98554.53;6217612;23;20025;-94
2022/09/14 04:02:28;;;;;;;29.27;18.42;;;;;;;12.23;81.31;98526.00;6217935;23;20016;-96
2022/09/14 04:04:55;;;;;;;26.52;17.27;;;;;;;12.46;80.99;98555.69;6168751;23;20099;-94
2022/09/14 04:07:21;;;;;;;24.00;16.33;;;;;;;12.43;80.75;98548.94;6215487;23;20046;-89
2022/09/14 04:09:47;;;;;;;25.60;15.45;;;;;;;12.41;80.84;98543.00;6216525;23;20016;-89
2022/09/14 04:12:13;;;;;;;30.30;17.48;;;;;;;12.62;81.08;98561.28;6194314;23;20090;-89
2022/09/14 04:14:39;;;;;;;30.45;17.83;;;;;;;12.63;80.93;98565.59;6222929;23;20020;-85
2022/09/14 04:43:11;;;;;;;21.20;17.10;;;;;;;12.95;80.34;98569.31;5133902;27;20386;-86
2022/09/14 04:48:04;;;;;;;23.30;16.52;;;;;;;13.05;80.08;98568.84;5129275;28;20074;-93
2022/09/14 04:50:32;;;;;;;21.67;15.98;;;;;;;13.04;79.55;98564.47;5112218;28;20661;-93
2022/09/14 04:53:03;;;;;;;22.90;15.45;;;;;;;13.04;79.58;98564.47;5112684;28;20043;-86
2022/09/14 04:55:29;;;;;;;24.75;16.98;;;;;;;13.06;79.80;98566.88;5130885;28;20039;-87
2022/09/14 04:57:55;;;;;;;21.77;15.38;;;;;;;12.98;79.41;98548.59;5112494;28;20076;-94
2022/09/14 05:00:22;;;;;;;20.63;13.17;;;;;;;13.01;79.42;98553.41;5079104;28;20047;-89
2022/09/14 05:02:48;;;;;;;24.35;16.42;;;;;;;12.93;79.50;98550.44;5112165;28;20126;-91
2022/09/14 05:05:14;;;;;;;22.70;16.65;;;;;;;12.97;79.54;98552.50;5111922;28;20092;-94
2022/09/14 05:07:40;;;;;;;31.27;17.77;;;;;;;13.10;79.62;98581.50;5112226;28;20051;-93
2022/09/14 05:10:07;;;;;;;26.73;18.27;;;;;;;13.03;79.37;98567.56;5112051;28;20408;-86
2022/09/14 05:12:33;;;;;;;27.13;17.50;;;;;;;13.05;79.74;98570.78;5112296;28;20054;-84
2022/09/14 05:14:59;;;;;;;22.53;16.10;;;;;;;12.93;79.18;98544.97;5130902;28;20047;-95
2022/09/14 05:17:25;;;;;;;24.30;15.98;;;;;;;13.08;79.71;98570.09;5112016;28;20040;-93
2022/09/14 05:19:52;;;;;;;22.48;15.68;;;;;;;13.08;79.69;98567.34;5111782;28;20088;-87
2022/09/14 05:24:47;;;;;;;19.45;13.57;;;;;;;13.06;79.15;98569.63;5130365;28;20408;-93
2022/09/14 05:27:13;;;;;;;19.30;14.07;;;;;;;13.12;79.40;98576.47;5130844;28;20072;-94
2022/09/14 05:29:39;;;;;;;18.08;14.02;;;;;;;13.21;79.52;98571.66;5112908;28;20519;-94
2022/09/14 05:34:34;;;;;;;18.75;13.18;;;;;;;13.28;79.50;98576.56;5126279;28;20043;-93
2022/09/14 05:37:00;;;;;;;17.63;13.18;;;;;;;13.22;78.68;98575.97;5101093;28;20531;-94
2022/09/14 05:39:26;;;;;;;16.60;12.63;;;;;;;13.19;78.63;98570.38;5111696;28;20035;-92
2022/09/14 05:41:52;;;;;;;19.60;13.50;;;;;;;13.24;79.26;98570.13;5115287;28;20055;-91
2022/09/14 05:44:18;;;;;;;19.90;13.60;;;;;;;13.15;78.77;98553.81;5104119;28;20496;-94
2022/09/14 05:46:44;;;;;;;17.10;12.98;;;;;;;13.29;78.62;98576.19;5081230;28;20496;-87
2022/09/14 05:49:10;;;;;;;17.83;13.43;;;;;;;13.17;78.86;98557.00;5116052;28;20091;-90
2022/09/14 05:51:36;;;;;;;17.50;12.32;;;;;;;13.30;78.44;98572.31;5117027;28;20051;-91
2022/09/14 05:54:08;;;;;;;16.73;12.82;;;;;;;13.31;78.34;98573.09;5115605;28;20031;-85
2022/09/14 05:56:34;;;;;;;19.17;12.93;;;;;;;13.35;78.43;98574.03;5097656;28;20032;-84
2022/09/14 05:59:00;;;;;;;18.33;13.80;;;;;;;13.36;78.25;98576.41;5115677;28;20122;-89
2022/09/14 06:01:28;;;;;;;19.05;12.75;;;;;;;13.35;78.05;98571.28;5115707;28;20039;-85
2022/09/14 06:03:56;;;;;;;16.25;12.52;;;;;;;13.40;78.33;98571.81;5115184;28;20043;-91
2022/09/14 06:06:23;;;;;;;18.90;12.50;;;;;;;13.37;78.23;98561.53;5096722;28;20093;-86
2022/09/14 06:08:55;;;;;;;21.10;12.75;;;;;;;13.43;77.96;98558.53;5097355;28;20059;-90
2022/09/14 06:11:23;;;;;;;18.17;13.02;;;;;;;13.50;78.14;98569.72;5063444;28;20047;-89
2022/09/14 06:13:50;;;;;;;19.08;12.48;;;;;;;13.48;78.29;98572.81;5063698;28;20041;-91
2022/09/14 06:16:18;;;;;;;15.73;12.67;;;;;;;13.52;78.14;98570.97;5097967;28;20040;-87
2022/09/14 06:18:46;;;;;;;16.77;11.95;;;;;;;13.36;77.71;98540.72;5063950;28;20036;-90
2022/09/14 06:21:16;;;;;;;14.57;11.50;;;;;;;13.49;77.63;98557.13;5114795;28;20040;-86
2022/09/14 06:23:43;;;;;;;15.38;11.98;;;;;;;13.57;78.13;98561.66;5060281;28;20039;-89
2022/09/14 06:26:09;;;;;;;;;;;;;;;13.56;78.00;98557.31;5051098;28;20031;-85
2022/09/14 06:28:35;;;;;;;20.27;11.67;;;;;;;13.55;77.34;98548.28;5072986;27;20017;-93
2022/09/14 06:31:03;;;;;;;20.48;11.70;;;;;;;13.32;77.19;98520.63;5091116;28;20302;-84
2022/09/14 06:33:30;;;;;;;25.50;12.15;;;;;;;13.49;78.01;98532.44;5108078;28;20439;-84
2022/09/14 06:36:10;;;;;;;18.55;11.63;;;;;;;13.69;77.66;98560.81;5113702;28;20068;-85
2022/09/14 06:38:36;;;;;;;15.63;11.65;;;;;;;13.65;76.73;98551.69;5062580;28;20047;-84
2022/09/14 06:41:05;;;;;;;19.20;12.50;;;;;;;13.65;77.09;98547.00;5058254;28;20036;-87
2022/09/14 06:43:34;;;;;;;15.50;12.18;;;;;;;13.69;77.02;98556.09;5095938;28;20035;-84
2022/09/14 06:46:07;;;;;;;18.38;13.18;;;;;;;13.69;77.21;98555.31;5113868;28;20051;-85
2022/09/14 06:48:36;;;;;;;19.10;13.63;;;;;;;13.57;77.15;98536.94;5113887;28;20104;-87
2022/09/14 06:51:14;;;;;;;18.52;13.45;;;;;;;13.70;76.85;98556.91;5114095;28;20373;-86
2022/09/14 06:53:41;;;;;;;23.38;15.55;;;;;;;13.74;76.84;98560.53;5095853;28;20043;-87
2022/09/14 06:56:09;;;;;;;22.88;15.68;;;;;;;13.69;77.19;98556.09;5047794;23;20053;-83
2022/09/14 06:58:35;;;;;;;26.20;16.20;;;;;;;13.63;77.18;98550.06;5053014;28;20041;-88
2022/09/14 07:01:08;;;;;;;27.85;16.88;;;;;;;13.62;77.49;98551.22;5035231;28;20554;-82
2022/09/14 07:03:37;;;;;;;22.10;15.70;;;;;;;13.55;77.41;98547.50;5052934;28;20065;-85
2022/09/14 07:06:12;;;;;;;31.67;17.67;;;;;;;13.62;77.63;98553.19;5053427;28;20033;-83
2022/09/14 07:08:39;;;;;;;35.22;18.58;;;;;;;13.63;78.02;98555.56;5041406;28;20042;-83
2022/09/14 07:11:06;;;;;;;36.85;18.67;;;;;;;13.62;78.31;98544.94;5050642;28;20494;-81
2022/09/14 07:13:34;;;;;;;28.05;17.10;;;;;;;13.55;78.25;98540.06;5052904;28;20057;-80
2022/09/14 07:16:02;;;;;;;29.58;18.23;;;;;;;13.52;78.61;98537.22;5052436;28;20045;-81
2022/09/14 07:18:32;;;;;;;37.22;17.63;;;;;;;13.63;78.27;98552.81;5058704;28;20036;-84
2022/09/14 07:21:14;;;;;;;38.97;17.98;;;;;;;13.53;78.60;98534.09;5068409;28;20063;-81
2022/09/14 07:23:43;;;;;;;31.98;18.27;;;;;;;13.60;78.89;98539.00;5034754;28;20048;-80
2022/09/14 07:26:20;;;;;;;30.55;18.33;;;;;;;13.62;79.00;98543.00;5034452;28;20486;-82
2022/09/14 07:28:49;;;;;;;29.65;19.30;;;;;;;13.68;79.15;98529.81;5050763;28;20080;-81
2022/09/14 07:31:31;;;;;;;30.35;17.60;;;;;;;13.68;78.82;98535.31;5052210;28;20409;-84
2022/09/14 07:34:00;;;;;;;33.60;18.58;;;;;;;13.71;79.04;98525.53;5032451;28;20506;-83
2022/09/14 07:36:30;;;;;;;32.03;19.17;;;;;;;13.79;79.25;98539.09;5040741;28;20490;-83
2022/09/14 07:38:56;;;;;;;33.28;20.05;;;;;;;13.80;79.10;98524.22;5052067;28;20048;-84
2022/09/14 07:41:27;;;;;;;30.55;19.33;;;;;;;13.82;79.24;98537.59;5050486;28;20110;-83
2022/09/14 07:43:56;;;;;;;31.17;20.02;;;;;;;13.94;79.63;98534.78;5050631;28;20056;-84
2022/09/14 07:46:23;;;;;;;29.33;19.45;;;;;;;13.93;79.44;98530.44;5051784;28;20049;-81
2022/09/14 07:48:57;;;;;;;29.23;19.35;;;;;;;14.02;79.47;98531.06;5051691;28;20051;-82
2022/09/14 07:51:25;;;;;;;31.20;19.60;;;;;;;14.09;79.49;98538.69;5052018;28;20033;-83
2022/09/14 07:53:52;;;;;;;28.60;19.63;;;;;;;14.14;79.70;98532.94;5051105;28;20246;-82
2022/09/14 07:56:20;;;;;;;33.83;21.75;;;;;;;14.28;79.35;98524.22;5066134;28;20087;-93
2022/09/14 07:58:47;;;;;;;34.97;20.42;;;;;;;14.43;79.17;98522.59;5046598;28;20056;-93
2022/09/14 08:01:18;;;;;;;24.50;16.23;;;;;;;14.53;78.85;98530.31;5065841;28;20124;-93
2022/09/14 08:03:47;;;;;;;23.35;16.27;;;;;;;14.50;78.14;98514.50;5071157;28;20041;-85
2022/09/14 08:06:22;;;;;;;23.80;16.05;;;;;;;14.54;77.93;98515.41;5073271;28;20043;-84
2022/09/14 08:08:50;;;;;;;23.27;15.85;;;;;;;14.59;77.50;98525.34;5052557;28;20041;-94
2022/09/14 08:11:20;;;;;;;23.30;16.83;;;;;;;14.69;77.85;98522.03;5033269;28;20045;-84
2022/09/14 08:13:50;;;;;;;25.90;15.88;;;;;;;14.72;77.41;98513.84;5047323;28;20048;-93
2022/09/14 08:16:17;;;;;;;24.40;14.45;;;;;;;14.68;76.95;98517.69;5063517;28;20048;-92
2022/09/14 08:21:15;;;;;;;34.17;15.82;;;;;;;14.67;76.71;98510.56;5041810;28;20050;-90
2022/09/14 08:23:44;;;;;;;31.23;17.90;;;;;;;14.64;77.22;98501.09;5046138;28;20417;-89
2022/09/14 08:26:15;;;;;;;25.88;16.52;;;;;;;14.66;77.65;98514.47;5041853;28;20079;-91
2022/09/14 08:28:46;;;;;;;26.08;16.10;;;;;;;14.59;77.41;98504.13;5055895;28;20049;-84
2022/09/14 08:31:16;;;;;;;27.45;16.00;;;;;;;14.61;77.67;98512.03;5056620;28;20059;-88
2022/09/14 08:33:46;;;;;;;24.98;16.35;;;;;;;14.63;77.67;98504.19;5059358;28;20048;-85
2022/09/14 08:36:15;;;;;;;29.00;17.35;;;;;;;14.56;77.50;98500.13;5058661;28;20055;-92
2022/09/14 08:38:42;;;;;;;27.40;16.85;;;;;;;14.43;77.39;98484.09;5050272;28;20033;-89
2022/09/14 08:41:11;;;;;;;;;;;;;;;14.52;77.68;98495.72;5057404;28;20033;-84
2022/09/14 08:44:19;;;;;;;25.50;15.13;;;;;;;14.50;77.47;98507.09;5057599;28;19947;-84
2022/09/14 08:46:56;;;;;;;30.88;19.52;;;;;;;14.54;77.44;98505.22;5063511;28;20128;-84
2022/09/14 08:49:43;;;;;;;21.35;14.52;;;;;;;14.56;77.28;98507.59;5063369;28;20045;-89
2022/09/14 08:52:45;;;;;;;23.63;15.10;;;;;;;14.57;77.85;98511.94;5063520;28;20041;-85
2022/09/14 08:55:31;;;;;;;19.85;13.73;;;;;;;14.57;77.28;98509.19;5041000;28;20065;-86
2022/09/14 08:58:26;;;;;;;18.73;12.77;;;;;;;14.50;77.66;98501.59;5009597;28;20066;-87
2022/09/14 09:01:30;;;;;;;21.70;12.32;;;;;;;14.67;77.71;98505.06;5036338;28;20045;-87
2022/09/14 09:04:28;;;;;;;18.52;12.52;;;;;;;14.67;76.83;98492.13;5040643;28;20056;-86
2022/09/14 09:07:12;;;;;;;18.48;12.30;;;;;;;14.79;77.05;98505.75;5042215;28;20082;-89
2022/09/14 09:09:52;;;;;;;18.58;12.77;;;;;;;14.71;76.77;98489.47;5042096;28;20049;-88
2022/09/14 09:12:32;;;;;;;19.00;12.45;;;;;;;14.88;76.42;98499.25;5025353;28;20045;-86
2022/09/14 09:15:02;;;;;;;18.33;11.13;;;;;;;14.64;76.52;98459.84;5033782;28;20055;-86
2022/09/14 09:17:41;;;;;;;13.35;9.85;;;;;;;14.72;76.47;98497.34;5024801;28;20047;-89
2022/09/14 09:20:19;;;;;;;19.60;12.63;;;;;;;14.75;76.77;98495.81;5030453;28;20077;-86
2022/09/14 09:22:57;;;;;;;20.27;12.90;;;;;;;14.80;76.33;98504.59;5046042;28;20056;-91
2022/09/14 09:25:38;;;;;;;18.67;11.20;;;;;;;14.74;76.14;98484.03;5047211;28;20041;-85
2022/09/14 09:28:11;;;;;;;20.40;11.68;;;;;;;14.78;75.99;98486.84;5063620;28;20047;-87
2022/09/14 09:30:50;;;;;;;22.00;11.02;;;;;;;14.79;76.28;98497.47;5070464;28;20051;-92
2022/09/14 09:33:21;;;;;;;16.33;9.82;;;;;;;14.85;76.25;98499.97;5067573;28;20037;-88
2022/09/14 09:36:23;;;;;;;15.15;9.80;;;;;;;14.88;76.04;98497.28;5069421;28;20033;-86
2022/09/14 09:38:58;;;;;;;18.15;11.80;;;;;;;14.68;76.57;98468.97;5038564;28;20033;-86
2022/09/14 09:42:03;;;;;;;22.30;13.65;;;;;;;14.64;76.48;98472.81;5075769;28;20057;-87
2022/09/14 09:44:56;;;;;;;20.98;14.60;;;;;;;14.80;76.63;98499.09;5077333;28;20032;-83
2022/09/14 09:47:32;;;;;;;37.30;15.25;;;;;;;14.75;76.67;98484.81;5077607;28;20087;-88
2022/09/14 09:50:15;;;;;;;59.03;16.05;;;;;;;14.83;76.91;98489.31;5090376;28;20108;-92
2022/09/14 09:52:59;;;;;;;30.77;15.60;;;;;;;14.83;76.75;98488.50;5092169;28;20028;-90
2022/09/14 09:55:34;;;;;;;40.40;16.77;;;;;;;14.80;76.92;98487.28;5087892;28;20025;-93
2022/09/14 09:58:29;;;;;;;38.03;20.10;;;;;;;14.78;76.91;98498.66;5061985;28;20041;-92
2022/09/14 10:00:57;;;;;;;60.95;20.17;;;;;;;14.70;77.09;98479.59;5058587;28;20044;-91
2022/09/14 10:03:29;;;;;;;61.35;16.45;;;;;;;14.82;77.02;98490.47;5056924;28;20497;-92
2022/09/14 10:06:04;;;;;;;39.55;17.33;;;;;;;14.79;77.32;98474.69;5060921;28;20498;-86
2022/09/14 10:08:33;;;;;;;35.80;14.27;;;;;;;14.84;77.06;98482.66;5057383;28;20064;-91
2022/09/14 10:11:02;;;;;;;19.13;11.35;;;;;;;14.93;76.40;98497.00;5059676;28;20033;-90
2022/09/14 10:13:36;;;;;;;19.98;9.73;;;;;;;14.93;75.91;98491.50;5057788;28;20132;-91
2022/09/14 10:16:17;;;;;;;18.85;9.98;;;;;;;14.95;76.76;98488.38;5057457;28;20048;-90
2022/09/14 10:18:51;;;;;;;12.57;8.60;;;;;;;14.82;76.31;98468.47;5056823;28;20128;-90
2022/09/14 10:21:24;;;;;;;13.00;8.40;;;;;;;14.98;75.99;98493.16;5056268;28;20123;-83
2022/09/14 10:24:18;;;;;;;12.05;8.30;;;;;;;14.99;76.24;98494.75;5056711;28;20585;-92
2022/09/14 10:26:44;;;;;;;14.82;9.25;;;;;;;14.97;76.46;98486.06;5040638;28;20498;-92
2022/09/14 10:29:29;;;;;;;11.65;8.50;;;;;;;15.05;75.89;98496.06;5057524;28;20068;-88
2022/09/14 10:32:16;;;;;;;13.77;8.82;;;;;;;15.07;76.11;98491.00;5039101;28;20038;-89
2022/09/14 10:34:43;;;;;;;14.40;10.35;;;;;;;14.85;76.00;98450.44;5041012;28;20418;-87
2022/09/14 10:37:30;;;;;;;20.95;9.18;;;;;;;15.10;76.00;98483.94;5040870;28;20044;-92
2022/09/14 10:40:29;;;;;;;18.77;8.80;;;;;;;15.10;75.92;98493.03;5040237;28;20041;-90
2022/09/14 10:43:13;;;;;;;11.07;7.75;;;;;;;15.14;75.93;98495.84;5016769;28;20107;-93
2022/09/14 10:45:50;;;;;;;12.23;8.20;;;;;;;15.18;75.68;98497.50;5063539;28;20045;-92
2022/09/14 10:48:22;;;;;;;10.55;7.50;;;;;;;15.25;75.40;98492.13;5063398;28;20036;-85
2022/09/14 10:50:51;;;;;;;8.73;6.88;;;;;;;15.25;74.99;98488.56;5060212;28;20112;-86
2022/09/14 10:53:54;;;;;;;10.45;7.68;;;;;;;15.26;75.23;98495.66;5042844;28;20051;-86
2022/09/14 10:56:46;;;;;;;8.02;6.88;;;;;;;15.30;75.28;98492.97;5042611;28;20057;-94
2022/09/14 10:59:30;;;;;;;10.45;7.50;;;;;;;15.28;74.91;98498.84;5042607;28;20041;-84
2022/09/14 11:02:34;;;;;;;8.95;6.57;;;;;;;15.31;74.22;98495.38;5063480;28;20053;-87
2022/09/14 11:05:11;;;;;;;8.77;6.63;;;;;;;15.41;74.83;98500.28;5061890;28;20044;-91
2022/09/14 11:08:11;;;;;;;9.02;6.45;;;;;;;15.52;74.41;98500.47;5056881;28;20517;-88
2022/09/14 11:11:03;;;;;;;15.02;7.15;;;;;;;15.58;74.20;98493.50;5057747;28;20063;-90
2022/09/14 11:14:14;;;;;;;9.98;6.82;;;;;;;15.59;73.79;98489.59;5057210;28;20108;-90
2022/09/14 11:17:10;;;;;;;14.73;6.35;;;;;;;15.63;73.65;98490.47;5031090;28;20036;-93
2022/09/14 11:19:45;;;;;;;8.32;5.72;;;;;;;15.66;72.58;98505.44;5058803;28;20036;-85
2022/09/14 11:22:38;;;;;;;7.53;5.50;;;;;;;15.64;72.84;98499.53;5059960;28;20044;-90
2022/09/14 11:25:17;;;;;;;11.23;6.78;;;;;;;15.57;73.32;98491.13;5059403;28;20057;-88
2022/09/14 11:27:50;;;;;;;27.55;6.70;;;;;;;15.40;72.13;98484.94;5058438;28;20131;-84
2022/09/14 11:30:22;;;;;;;26.80;7.13;;;;;;;15.22;72.42;98459.00;5060247;28;20032;-85
2022/09/14 12:47:49;;;;;;;16.90;7.07;;;;;;;16.07;69.70;98447.91;5109600;27;20932;-80
2022/09/14 12:50:21;;;;;;;15.32;6.30;;;;;;;16.00;70.04;98447.78;5108131;28;20047;-80
2022/09/14 12:53:17;;;;;;;28.42;7.35;;;;;;;16.03;70.35;98450.59;5108166;28;20040;-78
2022/09/14 12:55:58;;;;;;;25.30;6.53;;;;;;;15.97;68.58;98452.88;5109673;28;20077;-82
2022/09/14 12:58:40;;;;;;;32.50;6.97;;;;;;;16.00;69.78;98462.38;5109269;28;20404;-78
2022/09/14 13:01:25;;;;;;;22.75;6.20;;;;;;;15.92;68.21;98447.66;5107972;28;20045;-78
2022/09/14 13:03:54;;;;;;;15.30;6.45;;;;;;;16.00;69.72;98458.81;5109228;28;20052;-79
2022/09/14 13:06:22;;;;;;;14.27;5.97;;;;;;;15.85;68.52;98432.97;5109202;28;20040;-79
2022/09/14 13:08:55;;;;;;;11.90;6.38;;;;;;;15.76;68.12;98421.41;5107704;28;20047;-79
2022/09/14 13:11:27;;;;;;;13.18;6.95;;;;;;;15.69;69.61;98405.56;5074065;28;20139;-79
2022/09/14 13:13:55;;;;;;;25.10;8.48;;;;;;;16.00;69.91;98448.59;5109012;28;20411;-79
2022/09/14 13:16:42;;;;;;;21.02;9.90;;;;;;;16.04;70.07;98448.63;5108796;28;20043;-81
2022/09/14 13:19:23;;;;;;;17.33;7.93;;;;;;;16.04;69.39;98440.38;5109028;28;20062;-79
2022/09/14 13:21:52;;;;;;;14.30;6.70;;;;;;;15.92;68.13;98433.88;5107096;28;20051;-80
2022/09/14 13:24:31;;;;;;;15.85;7.13;;;;;;;16.01;67.74;98444.66;5107463;28;20040;-79
2022/09/14 13:27:00;;;;;;;14.63;6.18;;;;;;;16.06;67.93;98449.03;5108544;28;20043;-79
2022/09/14 13:29:27;;;;;;;14.27;5.82;;;;;;;15.67;69.07;98396.88;5108771;28;20040;-78
2022/09/14 13:31:55;;;;;;;43.75;7.32;;;;;;;16.04;69.61;98457.69;5108535;28;20048;-79
2022/09/14 13:34:28;;;;;;;28.45;6.88;;;;;;;15.91;68.83;98434.25;5108843;28;20369;-79
2022/09/14 13:36:56;;;;;;;23.63;7.65;;;;;;;16.01;68.57;98449.38;5107066;28;20537;-78
2022/09/14 13:39:26;;;;;;;22.05;7.85;;;;;;;15.87;68.73;98434.22;5108925;28;20044;-79
2022/09/14 13:41:55;;;;;;;26.95;9.25;;;;;;;15.92;69.55;98447.66;5108545;28;20126;-82
2022/09/14 13:44:26;;;;;;;14.98;8.23;;;;;;;15.65;69.59;98410.19;5108556;28;20044;-79
2022/09/14 13:46:56;;;;;;;24.85;8.27;;;;;;;15.82;69.81;98436.47;5118259;28;20507;-79
2022/09/14 13:49:24;;;;;;;28.02;8.60;;;;;;;15.38;69.83;98373.56;5115225;28;20092;-80